Pagrindinis puslapis
METAR-TAF:

METAR-TAF

Oro uostai :

Woodward, Oklahoma, Jungtinės Amerikos Valstijos

platuma: 36-26-12N, ilguma: 099-31-16W, Aukštis: 667 m

Dabartinis oras

Ataskaita buvo paskelbta 33 minutes, ne 11:55 UTC
Ramus vėjas
Temperatūra 6°C
Drėgmė 61%
Slėgis 1016 hPa
Matomumas: 16.1 km
Giedras dangus

METAR: KWWR 301155Z AUTO 00000KT 10SM CLR 06/M01 A3001 RMK AO2

Laikas: 06:28 (12:28 UTC)

Prognozė

Ataskaita buvo paskelbta 1 valandą ir 0 minutes, ne 11:28 UTC
Prognozė galioja nuo 30 metu 12 UTC su 01 metu 12 UTC
Vėjas 5 kt nuo kintamojo kryptimis
Matomumas: 10 km
Giedras dangus
Nuo 30 metu 1800 UTC
Vėjas 11 kt iš Šiaurės/Šiaurės Rytų su gūsio iki 17 kt
Matomumas: 10 km
Giedras dangus
Nuo 01 metu 0100 UTC
Vėjas 5 kt iš Šiaurės/Šiaurės Vakarų
Matomumas: 10 km
Giedras dangus

TAF: KWWR 301128Z 3012/0112 VRB05KT P6SM SKC FM301800 03011G17KT P6SM SKC FM010100 34005KT P6SM SKC

Orai ataskaitas ir orų prognozės (METAR, TAF).

turimą stotys yra geltonos ir raudonos taškus žemėlapyje.

Perkelti pele per norėdami pamatyti stoties vardą.

Tada spustelėkite, norėdami matyti oro stebėjimo ir prognozės.

Norėdami pakeisti žemėlapį: spustelėkite ant žalios mygtukų su juodo kryžiaus žemyn,; žalią mygtuką su brūkšneliu, jei norite nutolinti; arba žalių rodyklių gretimoms žemėlapius.


METAR-TAF: